Terminal Aerodrome Forecast
Issued by NWS Omaha/Valley, NE

Home | Current Version | Previous Version | Text Only | Print | Product List | Glossary Off
Versions: 1 2 3 4 5 6 7 8 9 10 11 12 13 14 15 16 17 18 19 20 21 22

000
FTUS43 KOAX 211723
TAFOFK
TAF
KOFK 211723Z 2118/2218 18010KT P6SM SKC
     FM220000 15012KT P6SM SKC
     FM220900 15012KT P6SM SCT012 BKN035
     FM221700 18015KT P6SM VCSH SCT010 OVC030=

USA.gov is the U.S. government's official web portal to all federal, state and local government web resources and services.